Time;durP1;ratioP1;P1;durP2;ratioP2;P2;SDS_P1;SDS_P2;PMS_P1;PMS_P2;Temp;Humidity;BMP_temperature;BMP_pressure;BME280_temperature;BME280_humidity;BME280_pressure;Samples;Min_cycle;Max_cycle;Signal;HPM_P1;HPM_P2
2022/01/11 00:02:23;;;;;;;37.40;17.48;;;;;;;-0.36;100.00;100276.59;5074637;28;20090;-81
2022/01/11 00:04:50;;;;;;;40.08;15.93;;;;;;;-0.30;100.00;100275.38;5073669;28;20454;-81
2022/01/11 00:07:19;;;;;;;36.50;15.73;;;;;;;-0.33;100.00;100277.34;5066365;28;20135;-80
2022/01/11 00:09:46;;;;;;;40.03;17.30;;;;;;;-0.32;100.00;100271.06;5070732;28;20105;-81
2022/01/11 00:12:13;;;;;;;37.30;17.30;;;;;;;-0.19;100.00;100272.09;5065828;28;20041;-81
2022/01/11 00:14:43;;;;;;;35.75;16.00;;;;;;;-0.09;100.00;100278.63;5068553;28;20048;-80
2022/01/11 00:17:10;;;;;;;29.55;15.38;;;;;;;-0.32;100.00;100269.25;5070257;28;20044;-80
2022/01/11 00:19:38;;;;;;;34.65;16.42;;;;;;;-0.34;100.00;100284.53;5064444;28;20040;-80
2022/01/11 00:22:08;;;;;;;49.35;17.55;;;;;;;-0.36;100.00;100278.41;5072043;28;20063;-80
2022/01/11 00:24:36;;;;;;;37.10;17.08;;;;;;;-0.38;100.00;100277.63;5074519;28;20045;-81
2022/01/11 00:27:05;;;;;;;37.35;16.60;;;;;;;-0.39;100.00;100274.09;5064903;28;20139;-80
2022/01/11 00:29:33;;;;;;;48.40;18.05;;;;;;;-0.27;100.00;100282.34;5066310;28;20123;-81
2022/01/11 00:32:05;;;;;;;44.80;19.48;;;;;;;-0.29;100.00;100274.41;5071722;28;20056;-81
2022/01/11 00:34:40;;;;;;;32.15;14.68;;;;;;;-0.30;100.00;100279.84;5059161;28;20076;-81
2022/01/11 00:37:09;;;;;;;42.63;17.83;;;;;;;-0.30;100.00;100298.56;5056416;28;20543;-81
2022/01/11 00:39:36;;;;;;;40.05;16.45;;;;;;;-0.27;100.00;100291.25;5073881;28;20051;-81
2022/01/11 00:42:03;;;;;;;32.88;16.17;;;;;;;-0.38;100.00;100273.16;5071239;28;20052;-81
2022/01/11 00:44:30;;;;;;;35.08;17.10;;;;;;;-0.28;100.00;100291.34;5073061;28;20055;-81
2022/01/11 00:46:57;;;;;;;37.55;17.20;;;;;;;-0.25;100.00;100299.16;5069527;28;20044;-81
2022/01/11 00:49:24;;;;;;;38.35;17.35;;;;;;;-0.37;100.00;100277.53;5064741;28;20049;-81
2022/01/11 00:51:51;;;;;;;41.90;17.77;;;;;;;-0.26;100.00;100298.28;5071535;28;20048;-80
2022/01/11 00:54:19;;;;;;;42.13;17.75;;;;;;;-0.28;100.00;100292.19;5074211;28;20050;-81
2022/01/11 00:56:46;;;;;;;37.78;18.92;;;;;;;-0.22;100.00;100288.31;5069867;28;20052;-81
2022/01/11 00:59:13;;;;;;;38.13;17.73;;;;;;;-0.21;100.00;100290.88;5063858;28;20051;-81
2022/01/11 01:01:40;;;;;;;34.60;17.05;;;;;;;-0.26;100.00;100279.59;5072957;28;20044;-81
2022/01/11 01:04:08;;;;;;;39.25;17.50;;;;;;;-0.18;100.00;100295.22;5066366;28;20041;-81
2022/01/11 01:06:37;;;;;;;35.47;16.40;;;;;;;-0.19;100.00;100274.75;5072211;28;20079;-81
2022/01/11 01:09:04;;;;;;;34.38;15.95;;;;;;;-0.25;100.00;100292.00;5072574;28;20051;-81
2022/01/11 01:11:33;;;;;;;41.97;17.00;;;;;;;-0.39;100.00;100279.44;5059202;28;20268;-81
2022/01/11 01:14:01;;;;;;;39.15;16.20;;;;;;;-0.41;100.00;100281.31;5071048;28;20511;-81
2022/01/11 01:16:28;;;;;;;37.40;17.48;;;;;;;-0.34;100.00;100294.34;5067209;28;20041;-81
2022/01/11 01:18:55;;;;;;;38.72;16.00;;;;;;;-0.43;100.00;100295.75;5073340;28;20048;-80
2022/01/11 01:21:22;;;;;;;32.63;15.10;;;;;;;-0.32;100.00;100297.78;5067135;28;20077;-80
2022/01/11 01:23:49;;;;;;;33.25;15.10;;;;;;;-0.37;100.00;100298.06;5071301;28;20049;-80
2022/01/11 01:26:17;;;;;;;29.77;13.80;;;;;;;-0.42;100.00;100286.75;5063665;28;20051;-81
2022/01/11 01:28:47;;;;;;;29.00;13.15;;;;;;;-0.26;100.00;100305.47;5073207;28;20132;-81
2022/01/11 01:31:14;;;;;;;29.50;14.70;;;;;;;-0.38;100.00;100294.53;5072439;28;20072;-80
2022/01/11 01:33:41;;;;;;;26.05;12.02;;;;;;;-0.27;100.00;100301.06;5072958;28;20052;-80
2022/01/11 01:36:11;;;;;;;32.58;12.75;;;;;;;-0.27;100.00;100301.06;5072539;28;20044;-81
2022/01/11 01:38:39;;;;;;;27.23;12.40;;;;;;;-0.24;100.00;100303.53;5072377;28;20098;-80
2022/01/11 01:41:12;;;;;;;31.80;13.05;;;;;;;-0.31;100.00;100296.84;5068710;28;20037;-80
2022/01/11 01:43:39;;;;;;;28.83;13.25;;;;;;;-0.30;100.00;100309.25;5072096;28;20412;-81
2022/01/11 01:46:08;;;;;;;32.20;13.10;;;;;;;-0.26;100.00;100300.97;5066533;28;20072;-80
2022/01/11 01:48:36;;;;;;;30.70;13.70;;;;;;;-0.32;100.00;100311.16;5072375;28;20045;-81
2022/01/11 01:51:05;;;;;;;28.67;14.48;;;;;;;-0.26;100.00;100321.50;5061186;28;20456;-81
2022/01/11 01:53:32;;;;;;;33.22;14.52;;;;;;;-0.27;100.00;100320.63;5064479;28;20045;-81
2022/01/11 01:55:59;;;;;;;33.72;13.82;;;;;;;-0.42;100.00;100311.69;5071534;28;20048;-81
2022/01/11 01:58:26;;;;;;;38.80;15.43;;;;;;;-0.23;100.00;100330.19;5066973;28;20048;-81
2022/01/11 02:01:01;;;;;;;31.55;14.15;;;;;;;-0.19;100.00;100334.41;5067186;28;20665;-81
2022/01/11 02:03:32;;;;;;;31.98;13.73;;;;;;;-0.19;100.00;100317.53;5072641;28;20506;-81
2022/01/11 02:05:59;;;;;;;;;;;;;;;-0.26;100.00;100325.00;5072810;28;20048;-81
2022/01/11 02:08:26;;;;;;;29.58;13.05;;;;;;;-0.25;100.00;100318.72;5071994;28;20292;-81
2022/01/11 02:10:54;;;;;;;29.92;13.00;;;;;;;-0.29;100.00;100319.00;5069456;28;20051;-80
2022/01/11 02:13:21;;;;;;;29.67;13.10;;;;;;;-0.39;100.00;100308.84;5069980;28;20102;-81
2022/01/11 02:15:49;;;;;;;42.05;16.30;;;;;;;-0.26;100.00;100324.16;5071963;28;20050;-81
2022/01/11 02:18:20;;;;;;;35.17;17.45;;;;;;;-0.22;100.00;100328.41;5072155;28;20051;-81
2022/01/11 02:20:50;;;;;;;47.67;18.70;;;;;;;-0.25;100.00;100312.53;5071056;28;20048;-81
2022/01/11 02:23:18;;;;;;;32.72;15.65;;;;;;;-0.34;100.00;100299.69;5070814;28;20052;-81
2022/01/11 02:25:46;;;;;;;37.20;16.05;;;;;;;-0.33;100.00;100307.63;5070892;28;20040;-80
2022/01/11 02:28:16;;;;;;;33.30;15.50;;;;;;;-0.30;100.00;100317.25;5066835;28;20044;-81
2022/01/11 02:30:43;;;;;;;36.92;16.45;;;;;;;-0.32;100.00;100308.47;5070018;28;20141;-81
2022/01/11 02:33:19;;;;;;;42.58;16.33;;;;;;;-0.21;100.00;100322.97;5067874;28;20048;-80
2022/01/11 02:35:50;;;;;;;42.80;15.65;;;;;;;-0.28;100.00;100316.22;5054621;28;20057;-81
2022/01/11 02:38:17;;;;;;;35.78;17.10;;;;;;;-0.36;100.00;100308.66;5072334;28;20055;-81
2022/01/11 02:40:44;;;;;;;32.45;15.27;;;;;;;-0.24;100.00;100323.13;5070955;28;20056;-81
2022/01/11 02:43:11;;;;;;;36.42;16.70;;;;;;;-0.21;100.00;100322.97;5071578;28;20047;-80
2022/01/11 02:45:38;;;;;;;23.70;12.68;;;;;;;-0.20;100.00;100313.13;5069942;28;20044;-81
2022/01/11 02:48:06;;;;;;;29.30;13.52;;;;;;;-0.16;100.00;100320.03;5071355;28;20060;-81
2022/01/11 02:50:33;;;;;;;28.75;13.82;;;;;;;-0.12;100.00;100318.91;5069671;28;20047;-81
2022/01/11 02:53:01;;;;;;;28.27;13.98;;;;;;;-0.23;100.00;100318.66;5067130;28;20064;-81
2022/01/11 02:55:28;;;;;;;28.95;14.85;;;;;;;-0.16;100.00;100321.84;5070585;28;20044;-80
2022/01/11 02:57:56;;;;;;;29.50;13.85;;;;;;;-0.33;100.00;100306.75;5071188;28;20404;-80
2022/01/11 03:00:24;;;;;;;32.65;15.75;;;;;;;-0.43;100.00;100301.94;5069965;28;20117;-80
2022/01/11 03:02:51;;;;;;;35.88;15.38;;;;;;;-0.21;100.00;100322.97;5056595;28;20057;-80
2022/01/11 03:05:18;;;;;;;36.55;14.90;;;;;;;-0.31;100.00;100320.91;5064983;28;20048;-80
2022/01/11 03:07:45;;;;;;;35.45;15.77;;;;;;;-0.43;100.00;100312.63;5071384;28;20044;-80
2022/01/11 03:10:23;;;;;;;33.67;15.35;;;;;;;-0.39;100.00;100308.84;5069809;28;20058;-80
2022/01/11 03:12:50;;;;;;;35.72;16.00;;;;;;;-0.26;100.00;100313.47;5066791;28;20056;-80
2022/01/11 03:15:19;;;;;;;34.55;15.13;;;;;;;-0.16;100.00;100317.34;5071155;28;20045;-80
2022/01/11 03:17:46;;;;;;;33.72;15.15;;;;;;;-0.33;100.00;100296.94;5071281;28;20480;-80
2022/01/11 03:20:13;;;;;;;37.25;14.20;;;;;;;-0.38;100.00;100309.69;5069771;28;20431;-80
2022/01/11 03:22:40;;;;;;;31.17;15.07;;;;;;;-0.37;100.00;100311.41;5070947;28;20052;-80
2022/01/11 03:25:08;;;;;;;40.50;17.23;;;;;;;-0.47;100.00;100323.56;5066986;28;20095;-80
2022/01/11 03:27:38;;;;;;;33.88;15.98;;;;;;;-0.64;100.00;100311.16;5071655;28;20044;-81
2022/01/11 03:30:06;;;;;;;;;;;;;;;-0.37;100.00;100322.97;5071148;28;20068;-80
2022/01/11 03:32:32;;;;;;;30.63;15.70;;;;;;;-0.42;100.00;100317.03;5070932;28;19920;-80
2022/01/11 03:34:59;;;;;;;39.67;16.40;;;;;;;-0.33;100.00;100312.09;5070639;28;20070;-80
2022/01/11 03:37:26;;;;;;;31.20;15.38;;;;;;;-0.31;100.00;100337.78;5066722;28;20040;-80
2022/01/11 03:39:53;;;;;;;34.13;16.55;;;;;;;-0.43;100.00;100338.50;5059731;28;20488;-80
2022/01/11 03:42:20;;;;;;;39.60;19.00;;;;;;;-0.45;100.00;100319.00;5071760;28;20044;-80
2022/01/11 03:44:49;;;;;;;41.67;16.75;;;;;;;-0.53;100.00;100324.75;5069217;28;20159;-80
2022/01/11 03:47:16;;;;;;;37.25;17.27;;;;;;;-0.44;100.00;100339.41;5071166;28;20040;-81
2022/01/11 03:49:45;;;;;;;35.53;16.27;;;;;;;-0.43;100.00;100330.47;5070216;28;20048;-80
2022/01/11 03:52:12;;;;;;;42.72;15.68;;;;;;;-0.41;100.00;100331.22;5068764;28;20044;-80
2022/01/11 03:55:02;;;;;;;37.42;15.07;;;;;;;-0.47;100.00;100332.44;5063502;28;20045;-80
2022/01/11 03:57:31;;;;;;;38.55;15.38;;;;;;;-0.58;100.00;100329.50;5068018;28;20468;-80
2022/01/11 04:00:01;;;;;;;37.22;16.83;;;;;;;-0.49;100.00;100337.00;5065752;28;20041;-81
2022/01/11 04:02:29;;;;;;;38.47;15.63;;;;;;;-0.42;100.00;100341.06;5065284;28;20157;-80
2022/01/11 04:04:57;;;;;;;31.90;14.60;;;;;;;-0.49;100.00;100331.66;5053647;28;20048;-80
2022/01/11 04:07:27;;;;;;;31.30;15.75;;;;;;;-0.47;100.00;100336.94;5064913;28;20063;-81
2022/01/11 04:09:55;;;;;;;37.13;15.63;;;;;;;-0.51;100.00;100352.28;5065971;28;20131;-80
2022/01/11 04:12:23;;;;;;;35.33;15.70;;;;;;;-0.38;100.00;100347.09;5064177;28;20045;-81
2022/01/11 04:14:50;;;;;;;32.50;16.17;;;;;;;-0.47;100.00;100340.44;5064360;28;20132;-81
2022/01/11 04:17:18;;;;;;;28.23;13.70;;;;;;;-0.40;100.00;100354.34;5064929;28;20520;-80
2022/01/11 04:19:45;;;;;;;27.73;13.95;;;;;;;-0.41;100.00;100356.13;5072472;28;20572;-81
2022/01/11 04:22:12;;;;;;;35.13;15.65;;;;;;;-0.51;100.00;100336.25;5072476;28;20480;-81
2022/01/11 04:24:42;;;;;;;32.15;15.50;;;;;;;-0.49;100.00;100361.06;5073216;28;20052;-80
2022/01/11 04:27:09;;;;;;;35.92;16.23;;;;;;;-0.43;100.00;100360.72;5070040;28;20465;-81
2022/01/11 04:29:36;;;;;;;31.90;15.60;;;;;;;-0.40;100.00;100363.22;5071482;28;20040;-80
2022/01/11 04:32:03;;;;;;;31.83;14.85;;;;;;;-0.42;100.00;100358.88;5071891;28;20052;-80
2022/01/11 04:34:32;;;;;;;33.05;15.82;;;;;;;-0.42;100.00;100366.91;5073250;28;20055;-80
2022/01/11 04:36:59;;;;;;;33.22;15.05;;;;;;;-0.45;100.00;100353.72;5062967;28;20055;-80
2022/01/11 04:39:26;;;;;;;33.42;14.45;;;;;;;-0.47;100.00;100360.97;5072787;28;20044;-80
2022/01/11 04:41:53;;;;;;;36.00;16.33;;;;;;;-0.48;100.00;100370.81;5059986;28;20060;-80
2022/01/11 04:44:20;;;;;;;37.30;15.50;;;;;;;-0.45;100.00;100365.28;5066757;28;20060;-80
2022/01/11 04:46:47;;;;;;;33.50;14.55;;;;;;;-0.46;100.00;100360.03;5068289;28;20047;-80
2022/01/11 04:49:14;;;;;;;34.83;15.10;;;;;;;-0.41;100.00;100372.16;5073640;28;20036;-80
2022/01/11 04:51:42;;;;;;;34.50;16.00;;;;;;;-0.45;100.00;100364.41;5072111;28;20048;-80
2022/01/11 04:54:10;;;;;;;34.78;16.58;;;;;;;-0.42;100.00;100375.81;5067499;28;20045;-80
2022/01/11 04:56:37;;;;;;;42.20;17.73;;;;;;;-0.44;100.00;100377.69;5067836;28;20052;-83
2022/01/11 04:59:06;;;;;;;41.00;17.38;;;;;;;-0.54;100.00;100369.31;5073503;28;20441;-82
2022/01/11 05:01:34;;;;;;;36.17;16.30;;;;;;;-0.34;100.00;100387.88;5067617;28;20109;-80
2022/01/11 05:04:01;;;;;;;32.38;15.73;;;;;;;-0.43;100.00;100382.09;5073465;28;20087;-80
2022/01/11 05:06:27;;;;;;;38.70;17.75;;;;;;;-0.42;100.00;100378.47;5072779;28;20049;-81
2022/01/11 05:08:56;;;;;;;35.78;17.67;;;;;;;-0.49;100.00;100377.09;5074920;28;20063;-81
2022/01/11 05:11:23;;;;;;;36.17;16.38;;;;;;;-0.39;100.00;100389.00;5072662;28;20050;-81
2022/01/11 05:13:50;;;;;;;30.33;13.38;;;;;;;-0.43;100.00;100366.06;5071946;28;20076;-81
2022/01/11 05:16:17;;;;;;;33.78;15.10;;;;;;;-0.40;100.00;100386.41;5073492;28;20055;-81
2022/01/11 05:18:44;;;;;;;34.00;15.20;;;;;;;-0.52;100.00;100376.41;5072894;28;20040;-81
2022/01/11 05:21:11;;;;;;;35.17;13.40;;;;;;;-0.44;100.00;100388.38;5066966;28;20044;-81
2022/01/11 05:23:38;;;;;;;34.28;15.70;;;;;;;-0.46;100.00;100389.41;5068057;28;20400;-81
2022/01/11 05:26:06;;;;;;;32.90;15.60;;;;;;;-0.50;100.00;100394.06;5071625;28;20049;-81
2022/01/11 05:28:34;;;;;;;43.95;17.80;;;;;;;-0.38;100.00;100392.53;5065767;28;20053;-81
2022/01/11 05:31:02;;;;;;;40.15;17.60;;;;;;;-0.39;100.00;100390.81;5068646;28;20053;-81
2022/01/11 05:33:29;;;;;;;32.25;14.95;;;;;;;-0.43;100.00;100390.09;5071726;28;20045;-81
2022/01/11 05:35:56;;;;;;;33.50;15.82;;;;;;;-0.44;100.00;100392.84;5070225;28;20060;-81
2022/01/11 05:38:23;;;;;;;34.80;15.80;;;;;;;-0.45;100.00;100397.34;5072113;28;20520;-81
2022/01/11 05:40:50;;;;;;;31.90;14.48;;;;;;;-0.43;100.00;100403.47;5072257;28;20051;-81
2022/01/11 05:43:18;;;;;;;32.35;14.70;;;;;;;-0.54;100.00;100390.69;5072250;28;20102;-81
2022/01/11 05:45:45;;;;;;;37.08;15.00;;;;;;;-0.47;100.00;100401.03;5064557;28;20123;-81
2022/01/11 05:48:13;;;;;;;35.03;15.73;;;;;;;-0.50;100.00;100387.84;5067681;28;20127;-81
2022/01/11 05:50:39;;;;;;;33.80;15.32;;;;;;;-0.48;100.00;100397.53;5070920;28;20056;-81
2022/01/11 05:53:06;;;;;;;37.75;15.95;;;;;;;-0.30;100.00;100413.47;5070229;28;20045;-81
2022/01/11 05:55:33;;;;;;;38.15;15.93;;;;;;;-0.43;100.00;100408.81;5072496;28;20048;-81
2022/01/11 05:58:00;;;;;;;39.83;16.08;;;;;;;-0.36;100.00;100425.38;5070466;28;20037;-81
2022/01/11 06:00:29;;;;;;;28.80;15.20;;;;;;;-0.40;100.00;100432.69;5062451;28;20408;-81
2022/01/11 06:02:58;;;;;;;41.25;16.85;;;;;;;-0.38;100.00;100437.94;5065735;28;20045;-81
2022/01/11 06:05:25;;;;;;;35.72;16.23;;;;;;;-0.50;100.00;100418.09;5070823;28;20082;-81
2022/01/11 06:07:52;;;;;;;37.40;15.82;;;;;;;-0.44;100.00;100431.13;5071829;28;20051;-81
2022/01/11 06:10:20;;;;;;;31.63;15.13;;;;;;;-0.50;100.00;100417.25;5071039;28;20041;-81
2022/01/11 06:12:47;;;;;;;31.30;13.65;;;;;;;-0.47;100.00;100439.31;5067097;28;20040;-81
2022/01/11 06:15:16;;;;;;;39.13;15.80;;;;;;;-0.55;100.00;100410.34;5066098;28;20507;-81
2022/01/11 06:17:44;;;;;;;;;;;;;;;-0.27;100.00;100442.69;5074306;28;20056;-81
2022/01/11 06:20:13;;;;;;;29.10;13.43;;;;;;;-0.38;100.00;100438.81;5072395;28;19920;-81
2022/01/11 06:22:40;;;;;;;34.60;14.45;;;;;;;-0.33;100.00;100435.00;5072191;28;20051;-81
2022/01/11 06:25:08;;;;;;;34.92;14.43;;;;;;;-0.56;100.00;100427.31;5071490;28;20507;-80
2022/01/11 06:27:39;;;;;;;30.77;14.40;;;;;;;-0.56;100.00;100438.00;5071418;28;20055;-80
2022/01/11 06:30:07;;;;;;;32.55;13.63;;;;;;;-0.52;100.00;100449.38;5066810;28;20044;-80
2022/01/11 06:32:34;;;;;;;33.17;14.35;;;;;;;-0.50;100.00;100446.63;5061800;28;20106;-81
2022/01/11 06:35:03;;;;;;;44.50;16.35;;;;;;;-0.65;100.00;100438.47;5062061;28;20489;-81
2022/01/11 06:37:30;;;;;;;33.58;14.57;;;;;;;-0.62;100.00;100435.66;5062988;28;20424;-81
2022/01/11 06:39:57;;;;;;;35.50;15.48;;;;;;;-0.52;100.00;100460.06;5067523;28;20053;-80
2022/01/11 06:42:24;;;;;;;33.15;15.20;;;;;;;-0.61;100.00;100452.56;5062881;28;20055;-80
2022/01/11 06:44:51;;;;;;;31.25;14.63;;;;;;;-0.48;100.00;100463.44;5071234;28;20400;-80
2022/01/11 06:47:21;;;;;;;38.03;15.57;;;;;;;-0.57;100.00;100454.97;5070486;28;20067;-86
2022/01/11 06:49:48;;;;;;;34.20;14.80;;;;;;;-0.56;100.00;100467.41;5072759;28;20048;-80
2022/01/11 06:52:16;;;;;;;34.30;14.82;;;;;;;-0.64;100.00;100452.72;5056688;28;20045;-80
2022/01/11 06:54:46;;;;;;;38.95;14.68;;;;;;;-0.51;100.00;100468.94;5068868;28;20041;-80
2022/01/11 06:57:12;;;;;;;;;;;;;;;-0.49;100.00;100480.44;5068855;28;20044;-80
2022/01/11 06:59:39;;;;;;;34.55;13.77;;;;;;;-0.57;100.00;100479.03;5065152;28;19920;-80
2022/01/11 07:02:07;;;;;;;36.05;15.07;;;;;;;-0.55;100.00;100484.28;5062119;28;20047;-80
2022/01/11 07:04:37;;;;;;;37.60;15.73;;;;;;;-0.60;100.00;100475.66;5061589;28;20045;-80
2022/01/11 07:07:04;;;;;;;;;;;;;;;-0.56;100.00;100482.53;5067552;28;20131;-80
2022/01/11 07:09:32;;;;;;;34.08;13.38;;;;;;;-0.52;100.00;100483.25;5061436;28;19927;-80
2022/01/11 07:11:59;;;;;;;32.10;14.75;;;;;;;-0.52;100.00;100477.91;5066441;28;20048;-80
2022/01/11 07:14:26;;;;;;;38.75;15.95;;;;;;;-0.45;100.00;100481.97;5071456;28;20059;-81
2022/01/11 07:16:53;;;;;;;37.72;15.80;;;;;;;-0.45;100.00;100487.31;5070914;28;20052;-80
2022/01/11 07:19:20;;;;;;;38.17;15.55;;;;;;;-0.39;100.00;100505.72;5064282;28;20049;-80
2022/01/11 07:21:48;;;;;;;32.33;15.30;;;;;;;-0.49;100.00;100508.00;5069755;28;20044;-80
2022/01/11 07:24:17;;;;;;;33.47;15.35;;;;;;;-0.55;100.00;100494.97;5068301;28;20049;-80
2022/01/11 07:26:46;;;;;;;36.45;16.50;;;;;;;-0.54;100.00;100499.38;5071764;28;20048;-80
2022/01/11 07:29:12;;;;;;;36.75;16.50;;;;;;;-0.46;100.00;100502.50;5071206;28;20044;-80
2022/01/11 07:31:41;;;;;;;42.53;18.33;;;;;;;-0.38;100.00;100512.75;5067669;28;20047;-80
2022/01/11 07:34:09;;;;;;;36.20;16.85;;;;;;;-0.47;100.00;100507.91;5070166;28;20063;-80
2022/01/11 07:36:36;;;;;;;43.05;16.77;;;;;;;-0.37;100.00;100520.69;5070799;28;20045;-81
2022/01/11 07:39:03;;;;;;;35.60;17.35;;;;;;;-0.31;100.00;100522.19;5061700;28;20400;-80
2022/01/11 07:41:31;;;;;;;40.00;16.45;;;;;;;-0.38;100.00;100520.78;5069393;28;20051;-80
2022/01/11 07:43:59;;;;;;;37.25;17.85;;;;;;;-0.39;100.00;100521.75;5071190;28;20135;-81
2022/01/11 07:46:26;;;;;;;39.05;17.27;;;;;;;-0.45;100.00;100506.91;5069369;28;20056;-80
2022/01/11 07:48:53;;;;;;;32.90;15.45;;;;;;;-0.33;100.00;100523.19;5066458;28;20048;-80
2022/01/11 07:51:20;;;;;;;36.45;16.08;;;;;;;-0.45;100.00;100504.22;5069902;28;20499;-80
2022/01/11 07:53:47;;;;;;;39.72;17.90;;;;;;;-0.25;100.00;100526.34;5074005;28;20040;-80
2022/01/11 07:56:14;;;;;;;36.63;15.80;;;;;;;-0.24;100.00;100525.38;5064859;28;20068;-80
2022/01/11 07:58:41;;;;;;;40.78;17.27;;;;;;;-0.14;100.00;100528.44;5066686;28;20048;-80
2022/01/11 08:01:09;;;;;;;36.28;16.40;;;;;;;-0.10;100.00;100521.97;5072076;28;20036;-80
2022/01/11 08:03:38;;;;;;;38.47;16.55;;;;;;;-0.17;100.00;100526.78;5073202;28;20044;-80
2022/01/11 08:06:05;;;;;;;33.58;15.18;;;;;;;-0.11;100.00;100534.47;5074426;28;20055;-80
2022/01/11 08:08:32;;;;;;;30.67;15.27;;;;;;;-0.19;100.00;100536.69;5071737;28;20054;-80
2022/01/11 08:11:00;;;;;;;35.78;15.77;;;;;;;-0.10;100.00;100535.34;5074421;28;20056;-80
2022/01/11 08:13:27;;;;;;;33.40;14.70;;;;;;;-0.05;100.00;100528.78;5072582;28;20053;-80
2022/01/11 08:15:54;;;;;;;30.95;13.70;;;;;;;-0.09;100.00;100524.56;5067393;28;20048;-80
2022/01/11 08:18:22;;;;;;;34.78;15.77;;;;;;;-0.04;100.00;100545.72;5068276;28;20079;-81
2022/01/11 08:20:49;;;;;;;34.10;15.15;;;;;;;-0.03;100.00;100537.59;5069484;28;20388;-80
2022/01/11 08:23:16;;;;;;;37.88;16.50;;;;;;;-0.05;100.00;100544.81;5065928;28;20052;-80
2022/01/11 08:25:46;;;;;;;30.05;15.07;;;;;;;0.10;100.00;100558.31;5071288;28;20055;-80
2022/01/11 08:28:16;;;;;;;;;;;;;;;0.18;100.00;100558.75;5073484;28;20519;-83
2022/01/11 08:30:45;;;;;;;30.13;11.65;;;;;;;0.22;100.00;100556.78;5075521;28;19924;-80
2022/01/11 08:33:15;;;;;;;30.85;13.52;;;;;;;0.10;100.00;100552.97;5058185;28;20051;-80
2022/01/11 08:35:43;;;;;;;30.85;13.02;;;;;;;0.20;100.00;100564.00;5074436;28;20044;-80
2022/01/11 08:38:10;;;;;;;28.20;13.25;;;;;;;0.17;100.00;100554.38;5074128;28;20054;-80
2022/01/11 08:40:37;;;;;;;29.88;13.93;;;;;;;0.17;100.00;100554.38;5074225;28;20048;-80
2022/01/11 08:43:04;;;;;;;29.95;13.65;;;;;;;0.16;100.00;100556.16;5073182;28;20049;-80
2022/01/11 08:45:32;;;;;;;30.50;14.88;;;;;;;0.23;100.00;100567.41;5069568;28;20740;-80
2022/01/11 08:47:59;;;;;;;36.30;15.98;;;;;;;0.21;100.00;100563.97;5073870;28;20476;-80
2022/01/11 08:50:26;;;;;;;36.15;15.88;;;;;;;0.28;100.00;100575.16;5054638;28;20060;-80
2022/01/11 08:52:55;;;;;;;36.67;15.93;;;;;;;0.42;100.00;100569.03;5073483;28;20056;-80
2022/01/11 08:55:22;;;;;;;38.33;16.30;;;;;;;0.44;100.00;100567.16;5056606;28;20214;-80
2022/01/11 08:57:48;;;;;;;38.53;17.67;;;;;;;0.50;100.00;100566.81;5066893;28;20048;-80
2022/01/11 09:00:18;;;;;;;41.30;17.52;;;;;;;0.43;100.00;100560.09;5073303;28;20052;-80
2022/01/11 09:02:45;;;;;;;39.95;16.98;;;;;;;0.52;100.00;100578.28;5063660;28;20052;-80
2022/01/11 09:05:13;;;;;;;46.95;19.48;;;;;;;0.61;100.00;100583.13;5072599;28;20062;-80
2022/01/11 09:07:39;;;;;;;37.17;18.75;;;;;;;0.56;100.00;100577.19;5074011;28;20052;-80
2022/01/11 09:10:09;;;;;;;47.33;21.42;;;;;;;0.56;100.00;100576.28;5067030;28;20148;-80
2022/01/11 09:12:36;;;;;;;;;;;;;;;0.66;100.00;100582.88;5074534;28;20049;-80
2022/01/11 09:15:05;;;;;;;41.00;19.10;;;;;;;0.60;100.00;100576.03;5073363;28;19920;-80
2022/01/11 09:17:32;;;;;;;46.30;19.27;;;;;;;0.69;100.00;100586.25;5072788;28;20057;-80
2022/01/11 09:19:59;;;;;;;40.28;18.08;;;;;;;0.69;100.00;100569.31;5063797;28;20045;-80
2022/01/11 09:22:27;;;;;;;39.53;20.33;;;;;;;0.76;100.00;100584.06;5066743;28;20049;-79
2022/01/11 09:24:55;;;;;;;39.15;19.23;;;;;;;0.89;100.00;100589.59;5076786;28;20127;-80
2022/01/11 09:27:24;;;;;;;39.88;20.40;;;;;;;0.90;100.00;100583.28;5073746;28;20044;-80
2022/01/11 09:29:51;;;;;;;38.27;20.03;;;;;;;1.09;100.00;100596.47;5066363;28;20094;-80
2022/01/11 09:32:18;;;;;;;43.25;18.92;;;;;;;0.98;100.00;100575.69;5073654;28;20295;-80
2022/01/11 09:34:45;;;;;;;38.75;18.50;;;;;;;0.97;100.00;100581.97;5068787;28;20048;-80
2022/01/11 09:37:12;;;;;;;37.38;18.60;;;;;;;1.02;100.00;100587.06;5073791;28;20055;-80
2022/01/11 09:39:42;;;;;;;35.33;16.98;;;;;;;1.02;100.00;100596.00;5072943;28;20048;-80
2022/01/11 09:42:09;;;;;;;34.40;17.58;;;;;;;0.99;100.00;100572.03;5073018;28;20504;-81
2022/01/11 09:44:38;;;;;;;33.50;18.25;;;;;;;1.16;100.00;100579.09;5071940;28;20048;-80
2022/01/11 09:47:06;;;;;;;40.97;18.77;;;;;;;1.20;100.00;100594.03;5073586;28;20110;-79
2022/01/11 09:49:34;;;;;;;34.80;18.48;;;;;;;1.24;100.00;100582.19;5072249;28;20049;-80
2022/01/11 09:52:06;;;;;;;36.25;17.92;;;;;;;1.38;100.00;100592.06;5067494;28;20055;-80
2022/01/11 09:54:34;;;;;;;39.22;19.52;;;;;;;1.35;100.00;100576.19;5066366;28;20041;-80
2022/01/11 09:57:01;;;;;;;38.92;19.50;;;;;;;1.34;100.00;100578.94;5059096;28;20040;-80
2022/01/11 09:59:28;;;;;;;39.17;20.33;;;;;;;1.49;100.00;100593.25;5072189;28;20047;-79
2022/01/11 10:01:56;;;;;;;42.00;21.98;;;;;;;1.53;100.00;100592.97;5073129;28;20044;-81
2022/01/11 10:04:27;;;;;;;42.30;21.33;;;;;;;1.60;100.00;100596.16;5070587;28;20048;-81
2022/01/11 10:06:56;;;;;;;40.05;20.05;;;;;;;1.65;100.00;100577.97;5071044;28;20053;-80
2022/01/11 10:09:25;;;;;;;48.72;21.92;;;;;;;1.74;100.00;100600.69;5055411;28;20045;-84
2022/01/11 10:11:55;;;;;;;41.00;21.07;;;;;;;1.74;100.00;100593.50;5069646;28;20127;-80
2022/01/11 10:14:27;;;;;;;42.33;20.27;;;;;;;1.79;100.00;100578.97;5072530;28;20635;-80
2022/01/11 10:17:11;;;;;;;34.17;18.90;;;;;;;1.83;100.00;100573.31;5065227;28;20053;-80
2022/01/11 10:19:40;;;;;;;38.38;18.95;;;;;;;2.09;100.00;100586.94;5057002;28;20048;-80
2022/01/11 10:22:09;;;;;;;36.97;18.38;;;;;;;2.19;100.00;100589.91;5062003;28;20094;-80
2022/01/11 10:24:41;;;;;;;32.75;17.25;;;;;;;2.31;100.00;100602.56;5068879;28;20076;-80
2022/01/11 10:27:14;;;;;;;32.45;17.63;;;;;;;2.29;100.00;100583.88;5072147;28;20131;-80
2022/01/11 10:29:43;;;;;;;36.80;17.08;;;;;;;2.29;100.00;100583.00;5071931;28;20056;-79
2022/01/11 10:32:24;;;;;;;34.80;16.77;;;;;;;2.45;100.00;100596.31;5070110;28;20050;-80
2022/01/11 10:34:55;;;;;;;39.95;18.10;;;;;;;2.39;100.00;100592.19;5064599;28;20037;-80
2022/01/11 10:37:30;;;;;;;34.63;15.90;;;;;;;2.38;100.00;100587.78;5069220;28;20045;-79
2022/01/11 10:40:04;;;;;;;29.75;17.27;;;;;;;2.34;100.00;100588.09;5068929;28;20429;-80
2022/01/11 10:42:34;;;;;;;32.20;15.95;;;;;;;2.40;100.00;100585.88;5067418;28;20045;-80
2022/01/11 10:45:03;;;;;;;32.38;15.07;;;;;;;2.50;100.00;100588.84;5064954;28;20049;-80
2022/01/11 10:47:34;;;;;;;29.33;15.83;;;;;;;2.48;100.00;100588.06;5068498;28;20378;-80
2022/01/11 10:50:05;;;;;;;37.33;15.65;;;;;;;2.64;100.00;100594.16;5062636;28;20687;-80
2022/01/11 10:52:32;;;;;;;;;;;;;;;2.81;100.00;100578.78;5055193;28;20045;-80
2022/01/11 10:55:02;;;;;;;31.23;16.45;;;;;;;2.87;100.00;100572.16;5067356;28;19935;-80
2022/01/11 10:57:32;;;;;;;31.77;17.02;;;;;;;2.85;100.00;100577.63;5068228;28;20093;-80
2022/01/11 11:00:25;;;;;;;33.90;16.50;;;;;;;2.98;100.00;100581.22;5063663;28;20052;-80
2022/01/11 11:02:57;;;;;;;31.23;16.02;;;;;;;2.91;100.00;100571.84;5065882;28;20056;-80
2022/01/11 11:05:29;;;;;;;29.27;15.65;;;;;;;3.01;100.00;100583.72;5060081;28;20063;-80
2022/01/11 11:07:59;;;;;;;34.60;15.48;;;;;;;2.95;100.00;100573.38;5067530;28;20052;-79
2022/01/11 11:10:34;;;;;;;35.15;16.45;;;;;;;3.06;100.00;100591.47;5063954;28;20052;-80
2022/01/11 11:13:02;;;;;;;33.00;15.27;;;;;;;3.16;100.00;100581.84;5053663;28;20063;-79